Napoli Jet — IQTJ — position and weather

sailwx.info

Track history (hours):
 
Tides and Currents Weather Stations Pressure Air Temp Water Temp Dewpoint Dewpoint Depression Visibility Wind Speed Wind Dir Waves Ship Positions

Napoli Jet

Last reported at 2016-Jul-22 20:29 UTC. Time now 2016-Sep-29 05:03 UTC.
Position N 37°52' E 015°50'.
Warning: this ship's position is months out of date.

Length 41 m; draft 1.3 m.

Type: Ship. MMSI: 247051400.

Date/timePositionNaut miles runAvg speedWind from/ knotsBaromVisibWave heightAir tempDewpointWater temp
2016-Jul-22 20:29N 37°52' E 015°50'2122.4
2016-Jul-22 19:33N 38°09' E 015°35'2322.6
2016-Jul-22 18:33N 38°31' E 015°32'8126.7
2016-Jul-22 15:31N 39°49' E 014°59'2626.7
2016-Jul-22 14:34N 40°13' E 014°49'2726.2
2016-Jul-22 13:32N 40°31' E 014°22'20 9.6
2016-Jul-22 11:27N 40°50' E 014°16'0 0.0
2016-Jul-22 09:13N 40°50' E 014°16'0 0.0
2016-Jul-22 08:22N 40°50' E 014°16'0 0.0
2016-Jul-21 13:33N 40°50' E 014°16'0 0.0
2016-Jul-21 12:34N 40°50' E 014°16'1 0.7
2016-Jul-21 10:33N 40°49' E 014°17'1615.7
2016-Jul-21 09:33N 40°33' E 014°14'0 0.0
2016-Jul-21 08:33N 40°33' E 014°14'17 7.8
2016-Jul-21 06:24N 40°50' E 014°16'1 0.1
2016-Jul-20 15:20N 40°50' E 014°17'1720.9
2016-Jul-20 14:33N 40°33' E 014°14'0 0.0
2016-Jul-20 13:33N 40°33' E 014°14'17 7.8
2016-Jul-20 11:25N 40°50' E 014°16'1719.4
2016-Jul-20 10:33N 40°33' E 014°14'0 0.0
2016-Jul-20 09:31N 40°33' E 014°14'2 2.0
2016-Jul-20 08:33N 40°35' E 014°16'11 0.6
2016-Jul-19 13:26N 40°46' E 014°18'1314.8
2016-Jul-19 12:33N 40°33' E 014°14'0 0.0
2016-Jul-19 11:32N 40°33' E 014°14'0 0.0
2016-Jul-19 10:32N 40°33' E 014°14'17 6.9
2016-Jul-19 08:07N 40°50' E 014°16'4 0.3
2016-Jul-18 16:24N 40°46' E 014°17'1314.8
2016-Jul-18 15:32N 40°33' E 014°14'1 0.5
2016-Jul-18 13:33N 40°34' E 014°15'1 0.9
2016-Jul-18 12:34N 40°33' E 014°14'0 0.0
2016-Jul-18 11:33N 40°33' E 014°14'0 0.0
2016-Jul-18 10:34N 40°33' E 014°14'0 0.0
2016-Jul-18 09:32N 40°33' E 014°14'1612.6
2016-Jul-18 08:15N 40°49' E 014°17'1623.0
2016-Jul-18 07:34N 40°33' E 014°14'11 0.7
2016-Jul-17 15:33N 40°44' E 014°17'1110.7
2016-Jul-17 14:33N 40°33' E 014°14'1 0.7
2016-Jul-17 13:33N 40°34' E 014°14'1 0.8
2016-Jul-17 12:33N 40°34' E 014°13'1 1.5
2016-Jul-17 11:34N 40°34' E 014°15'1613.0
2016-Jul-17 10:18N 40°50' E 014°17'17 9.1
2016-Jul-17 08:28N 40°33' E 014°14'10 0.6
2016-Jul-16 15:34N 40°44' E 014°16'10 9.8
2016-Jul-16 14:30N 40°33' E 014°14'12 5.7
2016-Jul-16 12:20N 40°46' E 014°17'1214.5
2016-Jul-16 11:29N 40°33' E 014°14'0 0.0
2016-Jul-16 08:33N 40°33' E 014°14'13 0.9
2016-Jul-15 18:27N 40°46' E 014°17'5 5.3
2016-Jul-15 17:26N 40°41' E 014°18'10 9.2
2016-Jul-15 16:24N 40°50' E 014°17'1719.8
2016-Jul-15 15:33N 40°33' E 014°14'1 0.7
2016-Jul-15 13:32N 40°35' E 014°15'1 1.3
2016-Jul-15 12:33N 40°33' E 014°14'4 3.5
2016-Jul-15 11:31N 40°37' E 014°17'1312.1
2016-Jul-15 10:25N 40°50' E 014°17'1716.9
2016-Jul-15 09:26N 40°33' E 014°14'0 0.0
2016-Jul-15 08:33N 40°33' E 014°14'13 0.7
2016-Jul-14 15:07N 40°46' E 014°18'1321.4
2016-Jul-14 14:32N 40°33' E 014°14'0 0.0
2016-Jul-14 13:27N 40°33' E 014°14'5 4.8
2016-Jul-14 12:30N 40°37' E 014°18'6 1.7
2016-Jul-14 09:07N 40°42' E 014°15'2 0.1
2016-Jul-13 15:33N 40°44' E 014°16'1010.4
2016-Jul-13 14:33N 40°33' E 014°14'17 8.0
2016-Jul-13 12:28N 40°50' E 014°17'1718.2
2016-Jul-13 11:33N 40°33' E 014°14'0 0.0
2016-Jul-13 10:33N 40°33' E 014°14'0 0.4
2016-Jul-13 09:33N 40°34' E 014°15'1614.4
2016-Jul-13 08:27N 40°49' E 014°17'1617.3
2016-Jul-13 07:31N 40°34' E 014°15'1713.1
2016-Jul-13 06:14N 40°50' E 014°15'  
Track history (hours):
 
Tides and Currents Weather Stations Pressure Air Temp Water Temp Dewpoint Dewpoint Depression Visibility Wind Speed Wind Dir Waves Ship Positions

Napoli Jet

Last reported at 2016-Jul-22 20:29 UTC. Time now 2016-Sep-29 05:03 UTC.
Position N 37°52' E 015°50'.
Warning: this ship's position is months out of date.

Length 41 m; draft 1.3 m.

Type: Ship. MMSI: 247051400.

Date/timePositionNaut miles runAvg speedWind from/ knotsBaromVisibWave heightAir tempDewpointWater temp
2016-Jul-22 20:29N 37°52' E 015°50'2122.4
2016-Jul-22 19:33N 38°09' E 015°35'2322.6
2016-Jul-22 18:33N 38°31' E 015°32'8126.7
2016-Jul-22 15:31N 39°49' E 014°59'2626.7
2016-Jul-22 14:34N 40°13' E 014°49'2726.2
2016-Jul-22 13:32N 40°31' E 014°22'20 9.6
2016-Jul-22 11:27N 40°50' E 014°16'0 0.0
2016-Jul-22 09:13N 40°50' E 014°16'0 0.0
2016-Jul-22 08:22N 40°50' E 014°16'0 0.0
2016-Jul-21 13:33N 40°50' E 014°16'0 0.0
2016-Jul-21 12:34N 40°50' E 014°16'1 0.7
2016-Jul-21 10:33N 40°49' E 014°17'1615.7
2016-Jul-21 09:33N 40°33' E 014°14'0 0.0
2016-Jul-21 08:33N 40°33' E 014°14'17 7.8
2016-Jul-21 06:24N 40°50' E 014°16'1 0.1
2016-Jul-20 15:20N 40°50' E 014°17'1720.9
2016-Jul-20 14:33N 40°33' E 014°14'0 0.0
2016-Jul-20 13:33N 40°33' E 014°14'17 7.8
2016-Jul-20 11:25N 40°50' E 014°16'1719.4
2016-Jul-20 10:33N 40°33' E 014°14'0 0.0
2016-Jul-20 09:31N 40°33' E 014°14'2 2.0
2016-Jul-20 08:33N 40°35' E 014°16'11 0.6
2016-Jul-19 13:26N 40°46' E 014°18'1314.8
2016-Jul-19 12:33N 40°33' E 014°14'0 0.0
2016-Jul-19 11:32N 40°33' E 014°14'0 0.0
2016-Jul-19 10:32N 40°33' E 014°14'17 6.9
2016-Jul-19 08:07N 40°50' E 014°16'4 0.3
2016-Jul-18 16:24N 40°46' E 014°17'1314.8
2016-Jul-18 15:32N 40°33' E 014°14'1 0.5
2016-Jul-18 13:33N 40°34' E 014°15'1 0.9
2016-Jul-18 12:34N 40°33' E 014°14'0 0.0
2016-Jul-18 11:33N 40°33' E 014°14'0 0.0
2016-Jul-18 10:34N 40°33' E 014°14'0 0.0
2016-Jul-18 09:32N 40°33' E 014°14'1612.6
2016-Jul-18 08:15N 40°49' E 014°17'1623.0
2016-Jul-18 07:34N 40°33' E 014°14'11 0.7
2016-Jul-17 15:33N 40°44' E 014°17'1110.7
2016-Jul-17 14:33N 40°33' E 014°14'1 0.7
2016-Jul-17 13:33N 40°34' E 014°14'1 0.8
2016-Jul-17 12:33N 40°34' E 014°13'1 1.5
2016-Jul-17 11:34N 40°34' E 014°15'1613.0
2016-Jul-17 10:18N 40°50' E 014°17'17 9.1
2016-Jul-17 08:28N 40°33' E 014°14'10 0.6
2016-Jul-16 15:34N 40°44' E 014°16'10 9.8
2016-Jul-16 14:30N 40°33' E 014°14'12 5.7
2016-Jul-16 12:20N 40°46' E 014°17'1214.5
2016-Jul-16 11:29N 40°33' E 014°14'0 0.0
2016-Jul-16 08:33N 40°33' E 014°14'13 0.9
2016-Jul-15 18:27N 40°46' E 014°17'5 5.3
2016-Jul-15 17:26N 40°41' E 014°18'10 9.2
2016-Jul-15 16:24N 40°50' E 014°17'1719.8
2016-Jul-15 15:33N 40°33' E 014°14'1 0.7
2016-Jul-15 13:32N 40°35' E 014°15'1 1.3
2016-Jul-15 12:33N 40°33' E 014°14'4 3.5
2016-Jul-15 11:31N 40°37' E 014°17'1312.1
2016-Jul-15 10:25N 40°50' E 014°17'1716.9
2016-Jul-15 09:26N 40°33' E 014°14'0 0.0
2016-Jul-15 08:33N 40°33' E 014°14'13 0.7
2016-Jul-14 15:07N 40°46' E 014°18'1321.4
2016-Jul-14 14:32N 40°33' E 014°14'0 0.0
2016-Jul-14 13:27N 40°33' E 014°14'5 4.8
2016-Jul-14 12:30N 40°37' E 014°18'6 1.7
2016-Jul-14 09:07N 40°42' E 014°15'2 0.1
2016-Jul-13 15:33N 40°44' E 014°16'1010.4
2016-Jul-13 14:33N 40°33' E 014°14'17 8.0
2016-Jul-13 12:28N 40°50' E 014°17'1718.2
2016-Jul-13 11:33N 40°33' E 014°14'0 0.0
2016-Jul-13 10:33N 40°33' E 014°14'0 0.4
2016-Jul-13 09:33N 40°34' E 014°15'1614.4
2016-Jul-13 08:27N 40°49' E 014°17'1617.3
2016-Jul-13 07:31N 40°34' E 014°15'1713.1
2016-Jul-13 06:14N 40°50' E 014°15'  

Dump ship's entire track history